createdAt,value
2018-10-18T00:01:33.208Z,45.17
2018-10-18T00:04:02.244Z,47.40
2018-10-18T00:06:31.179Z,49.75
2018-10-18T00:09:00.294Z,50.52
2018-10-18T00:11:29.433Z,50.90
2018-10-18T00:13:58.380Z,51.85
2018-10-18T00:16:27.540Z,50.98
2018-10-18T00:18:56.466Z,52.45
2018-10-18T00:21:25.420Z,50.33
2018-10-18T00:23:54.410Z,50.65
2018-10-18T00:26:23.940Z,52.95
2018-10-18T00:28:52.862Z,52.33
2018-10-18T00:31:21.811Z,55.43
2018-10-18T00:33:50.863Z,55.43
2018-10-18T00:36:19.790Z,53.25
2018-10-18T00:38:48.714Z,54.50
2018-10-18T00:41:17.652Z,55.43
2018-10-18T00:43:46.586Z,54.73
2018-10-18T00:46:15.536Z,53.90
2018-10-18T00:48:44.475Z,52.88
2018-10-18T00:51:13.480Z,53.33
2018-10-18T00:53:42.406Z,54.80
2018-10-18T00:56:11.516Z,54.48
2018-10-18T00:58:40.561Z,50.08
2018-10-18T01:01:09.505Z,52.40
2018-10-18T01:03:38.404Z,51.55
2018-10-18T01:06:07.335Z,53.80
2018-10-18T01:08:36.421Z,52.43
2018-10-18T01:11:05.349Z,56.70
2018-10-18T01:13:34.228Z,55.23
2018-10-18T01:16:03.261Z,52.55
2018-10-18T01:18:32.227Z,52.40
2018-10-18T01:21:01.160Z,53.85
2018-10-18T01:23:30.115Z,52.40
2018-10-18T01:25:59.092Z,52.40
2018-10-18T01:28:28.533Z,53.68
2018-10-18T01:30:57.475Z,52.62
2018-10-18T01:33:26.590Z,51.45
2018-10-18T01:35:55.591Z,52.48
2018-10-18T01:38:24.669Z,51.92
2018-10-18T01:40:53.610Z,52.50
2018-10-18T01:43:22.509Z,51.77
2018-10-18T01:45:51.453Z,51.53
2018-10-18T01:48:20.379Z,52.17
2018-10-18T01:50:49.315Z,51.92
2018-10-18T01:53:18.239Z,51.75
2018-10-18T01:55:47.185Z,50.35
2018-10-18T01:58:16.111Z,53.25
2018-10-18T02:00:45.051Z,52.43
2018-10-18T02:03:13.991Z,47.08
2018-10-18T02:05:42.955Z,53.17
2018-10-18T02:08:12.289Z,48.13
2018-10-18T02:10:41.377Z,51.95
2018-10-18T02:13:10.292Z,51.30
2018-10-18T02:15:39.259Z,49.88
2018-10-18T02:18:08.232Z,50.98
2018-10-18T02:20:37.325Z,47.73
2018-10-18T02:23:06.765Z,50.28
2018-10-18T02:25:35.725Z,50.25
2018-10-18T02:28:04.746Z,49.13
2018-10-18T02:30:33.686Z,47.95
2018-10-18T02:33:02.652Z,49.70
2018-10-18T02:35:31.616Z,48.92
2018-10-18T02:38:00.562Z,50.55
2018-10-18T02:40:29.499Z,50.83
2018-10-18T02:42:58.432Z,50.50
2018-10-18T02:45:27.372Z,50.23
2018-10-18T02:47:56.315Z,51.92
2018-10-18T02:50:25.418Z,50.08
2018-10-18T02:52:54.376Z,52.43
2018-10-18T02:55:23.298Z,52.27
2018-10-18T02:57:52.278Z,52.13
2018-10-18T03:00:21.305Z,51.55
2018-10-18T03:02:50.286Z,52.25
2018-10-18T03:05:19.214Z,50.75
2018-10-18T03:07:48.143Z,47.98
2018-10-18T03:10:17.066Z,49.70
2018-10-18T03:12:46.064Z,49.58
2018-10-18T03:15:15.017Z,46.73
2018-10-18T03:17:43.963Z,48.55
2018-10-18T03:20:12.895Z,48.52
2018-10-18T03:22:41.831Z,48.75
2018-10-18T03:25:11.231Z,46.60
2018-10-18T03:27:40.423Z,47.03
2018-10-18T03:30:09.699Z,46.18
2018-10-18T03:32:38.802Z,46.42
2018-10-18T03:35:08.680Z,47.43
2018-10-18T03:37:37.761Z,47.67
2018-10-18T03:40:07.267Z,47.00
2018-10-18T03:42:36.273Z,45.98
2018-10-18T03:45:06.789Z,45.70
2018-10-18T03:47:35.824Z,46.75
2018-10-18T03:50:04.864Z,46.28
2018-10-18T03:52:33.795Z,49.20
2018-10-18T03:55:02.747Z,45.23
2018-10-18T03:57:31.914Z,45.08
2018-10-18T04:00:00.920Z,45.78
2018-10-18T04:02:30.066Z,47.73
2018-10-18T04:04:58.988Z,45.12
2018-10-18T04:07:28.124Z,47.35
2018-10-18T04:09:57.051Z,46.88
2018-10-18T04:12:26.031Z,46.80
2018-10-18T04:14:55.138Z,46.05
2018-10-18T04:17:24.108Z,46.13
2018-10-18T04:19:53.346Z,46.40
2018-10-18T04:22:22.286Z,47.25
2018-10-18T04:24:51.271Z,45.38
2018-10-18T04:27:20.396Z,45.48
2018-10-18T04:29:49.352Z,47.23
2018-10-18T04:32:18.334Z,45.90
2018-10-18T04:34:47.282Z,46.50
2018-10-18T04:37:16.323Z,46.70
2018-10-18T04:39:45.418Z,44.38
2018-10-18T04:42:14.390Z,46.28
2018-10-18T04:44:43.618Z,44.85
2018-10-18T04:47:12.593Z,47.70
2018-10-18T04:49:41.741Z,46.77
2018-10-18T04:52:10.680Z,46.80
2018-10-18T04:54:39.622Z,47.17
2018-10-18T04:57:09.132Z,48.35
2018-10-18T04:59:38.072Z,45.92
2018-10-18T05:02:07.042Z,47.58
2018-10-18T05:04:36.030Z,47.65
2018-10-18T05:07:05.596Z,46.90
2018-10-18T05:09:34.801Z,49.03
2018-10-18T05:12:03.766Z,47.83
2018-10-18T05:14:32.733Z,47.83
2018-10-18T05:17:01.655Z,49.95
2018-10-18T05:19:30.616Z,48.87
2018-10-18T05:21:59.571Z,49.38
2018-10-18T05:24:28.519Z,49.33
2018-10-18T05:26:57.419Z,48.98
2018-10-18T05:29:26.389Z,49.53
2018-10-18T05:31:55.403Z,48.85
2018-10-18T05:34:24.334Z,48.63
2018-10-18T05:36:53.358Z,48.75
2018-10-18T05:39:22.409Z,50.88
2018-10-18T05:41:51.411Z,48.08
2018-10-18T05:44:20.376Z,49.65
2018-10-18T05:46:49.447Z,47.58
2018-10-18T05:49:18.540Z,50.43
2018-10-18T05:51:47.611Z,51.75
2018-10-18T05:54:16.597Z,48.40
2018-10-18T05:56:45.765Z,49.50
2018-10-18T05:59:14.763Z,49.60
2018-10-18T06:01:43.744Z,57.08
2018-10-18T06:04:12.713Z,49.33
2018-10-18T06:06:41.694Z,48.25
2018-10-18T06:09:12.366Z,47.85
2018-10-18T06:11:41.359Z,47.45
2018-10-18T06:14:10.414Z,46.18
2018-10-18T06:16:39.364Z,47.08
2018-10-18T06:19:08.456Z,47.58
2018-10-18T06:21:37.610Z,49.10
2018-10-18T06:24:06.223Z,45.83
2018-10-18T06:26:35.217Z,49.08
2018-10-18T06:29:04.626Z,48.05
2018-10-18T06:31:33.877Z,49.23
2018-10-18T06:34:02.891Z,48.42
2018-10-18T06:36:32.283Z,48.38
2018-10-18T06:39:01.453Z,46.63
2018-10-18T06:41:30.684Z,47.40
2018-10-18T06:43:59.671Z,48.15
2018-10-18T06:46:28.763Z,47.98
2018-10-18T06:48:57.832Z,45.85
2018-10-18T06:51:26.979Z,45.83
2018-10-18T06:53:55.969Z,46.35
2018-10-18T06:56:25.183Z,45.10
2018-10-18T06:58:54.369Z,45.67
2018-10-18T07:01:23.397Z,44.67
2018-10-18T07:03:52.390Z,44.98
2018-10-18T07:06:21.390Z,41.90
2018-10-18T07:08:50.471Z,45.38
2018-10-18T07:11:19.638Z,45.98
2018-10-18T07:13:48.606Z,42.85
2018-10-18T07:16:17.585Z,45.40
2018-10-18T07:18:46.557Z,43.02
2018-10-18T07:21:15.830Z,47.43
2018-10-18T07:23:44.861Z,44.48
2018-10-18T07:26:13.864Z,44.65
2018-10-18T07:28:44.214Z,46.80
2018-10-18T07:31:13.185Z,46.58
2018-10-18T07:33:42.128Z,47.23
2018-10-18T07:36:11.205Z,46.10
2018-10-18T07:38:40.295Z,47.13
2018-10-18T07:41:09.295Z,45.90
2018-10-18T07:43:38.444Z,47.45
2018-10-18T07:46:07.439Z,48.68
2018-10-18T07:48:36.423Z,48.63
2018-10-18T07:51:05.407Z,47.80
2018-10-18T07:53:34.434Z,47.85
2018-10-18T07:56:03.877Z,48.08
2018-10-18T07:58:32.886Z,46.58
2018-10-18T08:01:01.867Z,47.00
2018-10-18T08:03:30.857Z,45.63
2018-10-18T08:05:59.834Z,45.98
2018-10-18T08:08:28.816Z,47.60
2018-10-18T08:10:57.804Z,45.15
2018-10-18T08:13:26.937Z,49.20
2018-10-18T08:15:55.931Z,44.65
2018-10-18T08:18:27.845Z,45.03
2018-10-18T08:20:56.864Z,42.98
2018-10-18T08:23:25.814Z,45.20
2018-10-18T08:25:54.752Z,44.48
2018-10-18T08:28:23.805Z,44.63
2018-10-18T08:30:54.592Z,45.15
2018-10-18T08:33:24.932Z,46.10
2018-10-18T08:35:54.549Z,46.18
2018-10-18T08:38:23.932Z,44.83
2018-10-18T08:40:52.918Z,44.20
2018-10-18T08:43:22.193Z,44.40
2018-10-18T08:45:51.418Z,43.70
2018-10-18T08:48:20.382Z,44.20
2018-10-18T08:50:49.341Z,44.83
2018-10-18T08:53:18.348Z,45.40
2018-10-18T08:55:47.334Z,43.60
2018-10-18T08:58:16.332Z,44.27
2018-10-18T09:00:45.357Z,47.27
2018-10-18T09:03:14.358Z,48.05
2018-10-18T09:05:43.458Z,48.15
2018-10-18T09:08:12.403Z,46.48
2018-10-18T09:10:41.394Z,48.08
2018-10-18T09:13:10.450Z,47.30
2018-10-18T09:15:39.589Z,49.58
2018-10-18T09:18:08.566Z,51.80
2018-10-18T09:20:37.511Z,49.03
2018-10-18T09:23:06.518Z,51.25
2018-10-18T09:25:35.550Z,49.42
2018-10-18T09:28:05.033Z,50.10
2018-10-18T09:30:34.000Z,50.15
2018-10-18T09:33:03.048Z,50.00
2018-10-18T09:35:32.069Z,50.78
2018-10-18T09:38:01.109Z,49.27
2018-10-18T09:40:30.102Z,50.03
2018-10-18T09:42:59.088Z,51.08
2018-10-18T09:45:28.226Z,50.05
2018-10-18T09:47:57.424Z,52.23
2018-10-18T09:50:26.408Z,51.63
2018-10-18T09:52:55.430Z,51.53
2018-10-18T09:55:24.566Z,51.08
2018-10-18T09:57:53.700Z,51.83
2018-10-18T10:00:28.015Z,51.55
2018-10-18T10:03:02.320Z,52.70
2018-10-18T10:05:31.317Z,52.55
2018-10-18T10:08:00.295Z,54.00
2018-10-18T10:10:29.337Z,53.25
2018-10-18T10:12:58.372Z,56.25
2018-10-18T10:15:27.520Z,53.70
2018-10-18T10:17:56.481Z,53.23
2018-10-18T10:20:25.463Z,53.40
2018-10-18T10:22:54.445Z,56.42
2018-10-18T10:25:23.415Z,55.48
2018-10-18T10:27:52.372Z,55.45
2018-10-18T10:30:21.400Z,53.92
2018-10-18T10:32:50.606Z,54.70
2018-10-18T10:35:19.817Z,54.00
2018-10-18T10:37:48.981Z,54.25
2018-10-18T10:40:18.061Z,53.95
2018-10-18T10:42:47.175Z,54.83
2018-10-18T10:45:16.385Z,55.48
2018-10-18T10:47:45.884Z,53.10
2018-10-18T10:50:26.925Z,54.08
2018-10-18T10:52:55.959Z,54.05
2018-10-18T10:55:24.930Z,52.05
2018-10-18T10:57:53.925Z,53.70
2018-10-18T11:01:26.704Z,53.05
2018-10-18T11:03:56.966Z,51.58
2018-10-18T11:06:26.472Z,52.20
2018-10-18T11:08:55.596Z,48.08
2018-10-18T11:11:24.783Z,49.65
2018-10-18T11:13:53.842Z,50.58
2018-10-18T11:16:23.006Z,48.92
2018-10-18T11:18:52.040Z,49.60
2018-10-18T11:21:21.118Z,48.25
2018-10-18T11:23:50.235Z,47.15
2018-10-18T11:26:19.392Z,47.13
2018-10-18T11:28:48.501Z,47.08
2018-10-18T11:31:17.541Z,47.30
2018-10-18T11:33:46.517Z,49.90
2018-10-18T11:36:15.578Z,49.98
2018-10-18T11:38:44.695Z,50.10
2018-10-18T11:41:13.688Z,51.58
2018-10-18T11:43:42.671Z,50.35
2018-10-18T11:46:11.617Z,50.28
2018-10-18T11:48:40.609Z,46.73
2018-10-18T11:51:09.591Z,46.88
2018-10-18T11:53:38.623Z,46.90
2018-10-18T11:56:07.958Z,47.27
2018-10-18T11:58:37.055Z,47.35
2018-10-18T12:01:06.131Z,45.08
2018-10-18T12:03:35.261Z,46.95
2018-10-18T12:06:04.790Z,45.50
2018-10-18T12:08:33.809Z,43.73
2018-10-18T12:11:02.813Z,46.10
2018-10-18T12:13:31.975Z,43.98
2018-10-18T12:16:00.989Z,40.08
2018-10-18T12:18:29.980Z,41.00
2018-10-18T12:20:59.001Z,38.40
2018-10-18T12:23:28.006Z,36.85
2018-10-18T12:25:57.032Z,35.90
2018-10-18T12:28:26.207Z,30.88
2018-10-18T12:30:55.189Z,29.63
2018-10-18T12:33:24.183Z,29.37
2018-10-18T12:35:53.187Z,29.12
2018-10-18T12:38:22.134Z,27.27
2018-10-18T12:40:51.208Z,28.15
2018-10-18T12:43:20.351Z,27.37
2018-10-18T12:45:49.321Z,28.00
2018-10-18T12:48:18.401Z,26.37
2018-10-18T12:50:47.506Z,25.62
2018-10-18T12:53:16.515Z,24.40
2018-10-18T12:55:45.515Z,26.10
2018-10-18T12:58:14.493Z,25.92
2018-10-18T13:00:43.494Z,25.75
2018-10-18T13:03:12.470Z,23.25
2018-10-18T13:05:41.435Z,24.82
2018-10-18T13:08:10.450Z,25.23
2018-10-18T13:10:39.562Z,25.43
2018-10-18T13:13:08.572Z,25.15
2018-10-18T13:15:37.562Z,25.25
2018-10-18T13:18:06.837Z,25.62
2018-10-18T13:20:36.033Z,24.43
2018-10-18T13:23:05.012Z,24.95
2018-10-18T13:25:34.050Z,24.27
2018-10-18T13:28:03.047Z,24.47
2018-10-18T13:30:32.089Z,25.02
2018-10-18T13:33:01.031Z,24.32
2018-10-18T13:35:30.001Z,23.73
2018-10-18T13:37:58.972Z,25.60
2018-10-18T13:40:28.157Z,24.07
2018-10-18T13:42:57.327Z,25.65
2018-10-18T13:45:26.295Z,24.95
2018-10-18T13:47:55.300Z,25.23
2018-10-18T13:50:24.326Z,25.08
2018-10-18T13:52:53.307Z,26.17
2018-10-18T13:55:22.324Z,25.65
2018-10-18T13:57:51.831Z,25.45
2018-10-18T14:00:24.787Z,25.52
2018-10-18T14:02:54.393Z,24.80
2018-10-18T14:05:24.185Z,24.35
2018-10-18T14:07:54.132Z,26.27
2018-10-18T14:10:23.306Z,25.72
2018-10-18T14:12:53.021Z,26.25
2018-10-18T14:15:21.992Z,25.55
2018-10-18T14:17:51.030Z,25.43
2018-10-18T14:20:20.335Z,26.17
2018-10-18T14:22:49.396Z,26.15
2018-10-18T14:25:18.389Z,27.20
2018-10-18T14:27:47.467Z,26.97
2018-10-18T14:30:16.461Z,28.55
2018-10-18T14:32:45.617Z,28.40
2018-10-18T14:35:14.774Z,27.20
2018-10-18T14:37:43.794Z,27.82
2018-10-18T14:40:13.211Z,28.10
2018-10-18T14:42:42.197Z,27.25
2018-10-18T14:45:11.303Z,27.42
2018-10-18T14:47:40.534Z,27.45
2018-10-18T14:50:11.622Z,27.87
2018-10-18T14:52:40.746Z,28.75
2018-10-18T14:55:09.784Z,27.80
2018-10-18T14:57:39.118Z,27.42
2018-10-18T15:00:10.163Z,26.93
2018-10-18T15:02:39.135Z,26.68
2018-10-18T15:05:09.242Z,27.17
2018-10-18T15:07:39.463Z,26.00
2018-10-18T15:10:09.947Z,26.20
2018-10-18T15:12:39.079Z,28.50
2018-10-18T15:15:09.046Z,26.62
2018-10-18T15:17:38.086Z,26.97
2018-10-18T15:20:07.980Z,27.07
2018-10-18T15:22:37.293Z,26.75
2018-10-18T15:25:07.164Z,26.50
2018-10-18T15:27:36.451Z,26.60
2018-10-18T15:30:07.512Z,26.82
2018-10-18T15:32:36.696Z,27.77
2018-10-18T15:35:06.832Z,26.62
2018-10-18T15:37:36.021Z,27.90
2018-10-18T15:40:05.333Z,25.85
2018-10-18T15:42:34.343Z,27.67
2018-10-18T15:45:03.460Z,26.25
2018-10-18T15:47:32.690Z,27.45
2018-10-18T15:50:01.771Z,26.87
2018-10-18T15:52:30.767Z,29.05
2018-10-18T15:54:59.742Z,28.80
2018-10-18T15:57:28.739Z,28.75
2018-10-18T15:59:57.770Z,27.40
2018-10-18T16:02:26.937Z,26.10
2018-10-18T16:04:55.965Z,28.10
2018-10-18T16:07:25.129Z,28.10
2018-10-18T16:09:54.126Z,30.92
2018-10-18T16:12:23.081Z,29.10
2018-10-18T16:14:52.059Z,27.50
2018-10-18T16:17:21.071Z,27.05
2018-10-18T16:19:50.050Z,27.65
2018-10-18T16:22:19.383Z,26.77
2018-10-18T16:24:48.385Z,26.37
2018-10-18T16:27:17.334Z,26.12
2018-10-18T16:29:46.336Z,26.55
2018-10-18T16:32:15.418Z,29.20
2018-10-18T16:34:44.451Z,25.45
2018-10-18T16:37:13.421Z,33.02
2018-10-18T16:39:42.385Z,27.42
2018-10-18T16:42:13.086Z,25.80
2018-10-18T16:44:42.063Z,25.92
2018-10-18T16:47:11.010Z,26.07
2018-10-18T16:49:39.996Z,26.75
2018-10-18T16:52:09.020Z,23.25
2018-10-18T16:54:38.172Z,26.27
2018-10-18T16:57:07.308Z,25.00
2018-10-18T16:59:36.302Z,24.10
2018-10-18T17:02:05.696Z,24.80
2018-10-18T17:04:34.817Z,26.12
2018-10-18T17:07:03.982Z,24.50
2018-10-18T17:09:32.960Z,25.52
2018-10-18T17:12:02.032Z,25.65
2018-10-18T17:14:31.508Z,25.43
2018-10-18T17:17:00.486Z,25.10
2018-10-18T17:19:29.506Z,26.40
2018-10-18T17:21:58.484Z,25.72
2018-10-18T17:24:27.446Z,24.45
2018-10-18T17:26:56.474Z,23.55
2018-10-18T17:29:25.638Z,25.17
2018-10-18T17:31:54.670Z,29.32
2018-10-18T17:34:23.793Z,27.02
2018-10-18T17:36:52.752Z,25.52
2018-10-18T17:39:21.745Z,22.42
2018-10-18T17:41:50.718Z,25.23
2018-10-18T17:44:19.749Z,23.07
2018-10-18T17:46:48.746Z,24.23
2018-10-18T17:49:17.762Z,23.98
2018-10-18T17:51:46.746Z,24.20
2018-10-18T17:54:15.775Z,23.18
2018-10-18T17:56:44.864Z,23.45
2018-10-18T17:59:13.823Z,25.50
2018-10-18T18:01:42.851Z,26.68
2018-10-18T18:04:11.823Z,24.10
2018-10-18T18:06:41.203Z,25.25
2018-10-18T18:09:10.221Z,23.95
2018-10-18T18:11:39.499Z,24.32
2018-10-18T18:14:08.499Z,24.02
2018-10-18T18:16:37.535Z,24.25
2018-10-18T18:19:06.739Z,22.80
2018-10-18T18:21:35.713Z,22.48
2018-10-18T18:24:04.734Z,25.43
2018-10-18T18:26:45.073Z,21.85
2018-10-18T18:29:02.922Z,23.02
2018-10-18T18:31:32.236Z,22.15
2018-10-18T18:34:01.178Z,23.35
2018-10-18T18:36:30.110Z,22.87
2018-10-18T18:38:59.060Z,22.00
2018-10-18T18:41:28.198Z,22.15
2018-10-18T18:43:57.182Z,22.90
2018-10-18T18:46:26.148Z,23.87
2018-10-18T18:48:55.076Z,22.75
2018-10-18T18:51:24.022Z,21.90
2018-10-18T18:53:53.150Z,21.68
2018-10-18T18:56:22.108Z,20.12
2018-10-18T18:58:51.084Z,19.77
2018-10-18T19:01:20.042Z,20.05
2018-10-18T19:03:48.984Z,19.32
2018-10-18T19:06:18.006Z,19.27
2018-10-18T19:08:46.928Z,18.62
2018-10-18T19:11:15.854Z,18.23
2018-10-18T19:13:45.136Z,17.67
2018-10-18T19:16:14.450Z,16.48
2018-10-18T19:18:43.422Z,17.35
2018-10-18T19:21:12.499Z,17.37
2018-10-18T19:23:41.560Z,17.92
2018-10-18T19:26:10.584Z,16.40
2018-10-18T19:28:39.658Z,16.42
2018-10-18T19:31:08.776Z,16.32
2018-10-18T19:33:37.726Z,15.53
2018-10-18T19:36:06.714Z,16.17
2018-10-18T19:38:35.759Z,15.58
2018-10-18T19:41:04.858Z,15.70
2018-10-18T19:43:33.792Z,15.45
2018-10-18T19:46:02.725Z,15.20
2018-10-18T19:48:31.890Z,14.87
2018-10-18T19:51:00.869Z,14.95
2018-10-18T19:53:30.036Z,14.55
2018-10-18T19:55:59.008Z,14.43
2018-10-18T19:58:28.156Z,14.13
2018-10-18T20:01:03.888Z,13.80
2018-10-18T20:03:32.941Z,12.95
2018-10-18T20:06:01.875Z,13.43
2018-10-18T20:08:30.808Z,12.93
2018-10-18T20:10:59.790Z,13.03
2018-10-18T20:13:28.775Z,12.70
2018-10-18T20:15:57.768Z,13.53
2018-10-18T20:18:26.790Z,12.82
2018-10-18T20:20:55.923Z,12.43
2018-10-18T20:23:25.048Z,13.48
2018-10-18T20:25:54.062Z,12.43
2018-10-18T20:28:23.105Z,13.38
2018-10-18T20:30:52.035Z,13.40
2018-10-18T20:33:21.022Z,13.10
2018-10-18T20:35:49.972Z,12.45
2018-10-18T20:38:18.905Z,12.90
2018-10-18T20:40:47.836Z,13.55
2018-10-18T20:43:16.796Z,11.97
2018-10-18T20:45:45.723Z,12.88
2018-10-18T20:48:14.717Z,12.13
2018-10-18T20:50:43.779Z,13.00
2018-10-18T20:53:12.828Z,12.47
2018-10-18T20:55:41.900Z,11.68
2018-10-18T20:58:10.819Z,12.20
2018-10-18T21:00:39.762Z,12.07
2018-10-18T21:03:08.800Z,11.70
2018-10-18T21:05:37.907Z,11.75
2018-10-18T21:08:06.865Z,11.03
2018-10-18T21:10:35.806Z,11.95
2018-10-18T21:13:05.302Z,11.63
2018-10-18T21:15:34.427Z,11.53
2018-10-18T21:18:03.358Z,12.03
2018-10-18T21:20:32.480Z,11.33
2018-10-18T21:23:01.481Z,12.23
2018-10-18T21:25:30.594Z,13.13
2018-10-18T21:27:59.551Z,12.70
2018-10-18T21:30:28.477Z,13.32
2018-10-18T21:32:57.464Z,12.88
2018-10-18T21:35:26.620Z,13.78
2018-10-18T21:37:55.771Z,13.55
2018-10-18T21:40:24.706Z,14.05
2018-10-18T21:42:53.680Z,13.45
2018-10-18T21:45:23.308Z,14.13
2018-10-18T21:47:52.812Z,13.48
2018-10-18T21:50:21.726Z,13.25
2018-10-18T21:52:50.660Z,14.03
2018-10-18T21:55:19.598Z,12.85
2018-10-18T21:57:48.542Z,14.80
2018-10-18T22:00:17.861Z,14.45
2018-10-18T22:02:47.262Z,14.93
2018-10-18T22:05:16.325Z,14.95
2018-10-18T22:07:45.486Z,14.38
2018-10-18T22:10:14.465Z,14.80
2018-10-18T22:12:43.422Z,14.38
2018-10-18T22:15:12.426Z,14.53
2018-10-18T22:17:41.527Z,14.60
2018-10-18T22:20:10.821Z,14.40
2018-10-18T22:22:39.785Z,14.50
2018-10-18T22:25:09.771Z,15.68
2018-10-18T22:27:38.719Z,14.63
2018-10-18T22:30:08.413Z,14.53
2018-10-18T22:32:37.423Z,15.03
2018-10-18T22:35:06.857Z,15.48
2018-10-18T22:37:36.079Z,14.95
2018-10-18T22:40:05.737Z,14.43
2018-10-18T22:42:34.710Z,15.15
2018-10-18T22:45:03.743Z,15.53
2018-10-18T22:47:32.872Z,15.68
2018-10-18T22:50:01.799Z,14.63
2018-10-18T22:52:30.752Z,15.23
2018-10-18T22:54:59.663Z,14.05
2018-10-18T22:57:28.631Z,14.28
2018-10-18T22:59:57.768Z,14.10
2018-10-18T23:02:26.794Z,14.03
2018-10-18T23:04:55.781Z,14.00
2018-10-18T23:07:24.956Z,14.63
2018-10-18T23:09:53.891Z,14.65
2018-10-18T23:12:22.838Z,14.13
2018-10-18T23:14:51.779Z,14.13
2018-10-18T23:17:20.725Z,13.88
2018-10-18T23:19:50.077Z,14.15
2018-10-18T23:22:19.012Z,14.20
2018-10-18T23:24:48.163Z,13.75
2018-10-18T23:27:16.334Z,13.78
2018-10-18T23:29:45.280Z,13.70
2018-10-18T23:32:14.224Z,14.40
2018-10-18T23:34:43.163Z,13.98
2018-10-18T23:37:12.474Z,13.93
2018-10-18T23:39:41.418Z,14.43
2018-10-18T23:42:10.390Z,13.60
2018-10-18T23:44:39.298Z,13.98
2018-10-18T23:47:08.252Z,13.88
2018-10-18T23:49:37.398Z,13.55
2018-10-18T23:52:06.340Z,13.43
2018-10-18T23:54:35.270Z,13.13
2018-10-18T23:57:04.240Z,13.95
2018-10-18T23:59:33.376Z,13.65
